createdAt,value
2016-09-30T00:00:37.845Z,997.38
2016-09-30T00:01:37.867Z,997.37
2016-09-30T00:02:37.888Z,997.38
2016-09-30T00:03:37.905Z,997.58
2016-09-30T00:04:37.921Z,997.55
2016-09-30T00:05:37.947Z,997.4
2016-09-30T00:06:37.968Z,997.26
2016-09-30T00:07:37.983Z,997.24
2016-09-30T00:08:38.007Z,997.24
2016-09-30T00:09:38.027Z,997.33
2016-09-30T00:10:38.044Z,997.36
2016-09-30T00:11:38.064Z,997.41
2016-09-30T00:12:38.083Z,997.37
2016-09-30T00:13:38.106Z,997.35
2016-09-30T00:14:38.140Z,997.41
2016-09-30T00:15:38.145Z,997.46
2016-09-30T00:16:38.165Z,997.45
2016-09-30T00:17:38.183Z,997.41
2016-09-30T00:18:38.204Z,997.36
2016-09-30T00:19:38.224Z,997.27
2016-09-30T00:20:38.242Z,997.18
2016-09-30T00:21:38.259Z,997.16
2016-09-30T00:22:38.277Z,997.24
2016-09-30T00:23:38.301Z,997.12
2016-09-30T00:24:38.322Z,997.14
2016-09-30T00:25:38.342Z,997.12
2016-09-30T00:26:38.360Z,997.05
2016-09-30T00:27:38.377Z,997.04
2016-09-30T00:28:38.402Z,997.01
2016-09-30T00:29:38.414Z,996.92
2016-09-30T00:30:38.436Z,996.91
2016-09-30T00:31:38.463Z,996.92
2016-09-30T00:32:38.479Z,996.88
2016-09-30T00:33:38.499Z,996.86
2016-09-30T00:34:38.520Z,996.88
2016-09-30T00:35:38.541Z,996.91
2016-09-30T00:36:38.557Z,996.9
2016-09-30T00:37:38.578Z,996.96
2016-09-30T00:38:38.597Z,996.93
2016-09-30T00:39:38.613Z,997.02
2016-09-30T00:40:38.636Z,997.02
2016-09-30T00:41:38.659Z,997.07
2016-09-30T00:42:38.677Z,997.17
2016-09-30T00:43:38.693Z,997.21
2016-09-30T00:44:38.718Z,997.26
2016-09-30T00:45:38.739Z,997.29
2016-09-30T00:46:38.751Z,997.24
2016-09-30T00:47:38.771Z,997.25
2016-09-30T00:48:38.797Z,997.24
2016-09-30T00:49:38.817Z,997.2
2016-09-30T00:50:38.832Z,997.15
2016-09-30T00:51:38.856Z,997.17
2016-09-30T00:52:38.876Z,997.23
2016-09-30T00:53:38.894Z,997.29
2016-09-30T00:54:38.914Z,997.27
2016-09-30T00:55:38.932Z,997.24
2016-09-30T00:56:38.951Z,997.23
2016-09-30T00:57:38.970Z,997.22
2016-09-30T00:58:38.993Z,997.17
2016-09-30T00:59:39.011Z,997.04
2016-09-30T01:00:39.034Z,996.97
2016-09-30T01:01:39.047Z,996.9
2016-09-30T01:02:39.068Z,996.86
2016-09-30T01:03:39.092Z,996.86
2016-09-30T01:04:39.115Z,996.85
2016-09-30T01:05:39.132Z,996.93
2016-09-30T01:06:39.152Z,996.98
2016-09-30T01:07:39.175Z,997.01
2016-09-30T01:08:39.193Z,997.12
2016-09-30T01:09:39.214Z,997.16
2016-09-30T01:10:39.230Z,997.13
2016-09-30T01:11:39.250Z,997.16
2016-09-30T01:12:39.267Z,997.18
2016-09-30T01:13:39.286Z,997.12
2016-09-30T01:14:39.307Z,997.14
2016-09-30T01:15:39.329Z,997.12
2016-09-30T01:16:39.345Z,997.06
2016-09-30T01:17:39.373Z,997.08
2016-09-30T01:18:39.386Z,997.1
2016-09-30T01:19:39.408Z,997.1
2016-09-30T01:20:39.429Z,997.09
2016-09-30T01:21:39.452Z,997.13
2016-09-30T01:22:39.466Z,997.06
2016-09-30T01:23:39.488Z,997.06
2016-09-30T01:24:39.507Z,997.06
2016-09-30T01:25:39.529Z,997.09
2016-09-30T01:26:39.547Z,997.03
2016-09-30T01:27:39.568Z,997.03
2016-09-30T01:28:39.589Z,997.01
2016-09-30T01:29:39.607Z,996.98
2016-09-30T01:30:39.629Z,996.93
2016-09-30T01:31:39.649Z,996.93
2016-09-30T01:32:39.662Z,996.9
2016-09-30T01:33:39.689Z,996.95
2016-09-30T01:34:39.709Z,996.94
2016-09-30T01:35:39.723Z,997.01
2016-09-30T01:36:39.746Z,996.99
2016-09-30T01:37:39.766Z,997
2016-09-30T01:38:39.788Z,996.97
2016-09-30T01:39:39.801Z,997.01
2016-09-30T01:40:39.827Z,997.01
2016-09-30T01:41:39.846Z,996.97
2016-09-30T01:42:39.866Z,996.93
2016-09-30T01:43:39.885Z,996.89
2016-09-30T01:44:39.901Z,996.88
2016-09-30T01:45:39.922Z,996.88
2016-09-30T01:46:39.948Z,996.83
2016-09-30T01:47:39.972Z,996.82
2016-09-30T01:48:39.990Z,996.82
2016-09-30T01:49:40.004Z,996.81
2016-09-30T01:50:40.027Z,996.81
2016-09-30T01:51:40.048Z,996.78
2016-09-30T01:52:40.070Z,996.78
2016-09-30T01:53:40.085Z,996.74
2016-09-30T01:54:40.110Z,996.78
2016-09-30T01:55:40.129Z,996.79
2016-09-30T01:56:40.147Z,996.78
2016-09-30T01:57:40.168Z,996.82
2016-09-30T01:58:40.189Z,996.82
2016-09-30T01:59:40.207Z,996.8
2016-09-30T02:00:40.228Z,996.77
2016-09-30T02:01:40.250Z,996.73
2016-09-30T02:02:40.269Z,996.71
2016-09-30T02:03:40.287Z,996.73
2016-09-30T02:04:40.308Z,996.72
2016-09-30T02:05:40.329Z,996.73
2016-09-30T02:06:40.345Z,996.74
2016-09-30T02:07:40.363Z,996.77
2016-09-30T02:08:40.389Z,996.73
2016-09-30T02:09:40.405Z,996.76
2016-09-30T02:10:40.425Z,996.75
2016-09-30T02:11:40.443Z,996.65
2016-09-30T02:12:40.469Z,996.68
2016-09-30T02:13:40.488Z,996.61
2016-09-30T02:14:40.503Z,996.62
2016-09-30T02:15:40.523Z,996.66
2016-09-30T02:16:40.543Z,996.65
2016-09-30T02:17:40.564Z,996.58
2016-09-30T02:18:40.587Z,996.58
2016-09-30T02:19:40.607Z,996.59
2016-09-30T02:20:40.626Z,996.64
2016-09-30T02:21:40.646Z,996.65
2016-09-30T02:22:40.666Z,996.63
2016-09-30T02:23:40.686Z,996.66
2016-09-30T02:24:40.716Z,996.65
2016-09-30T02:25:40.724Z,996.63
2016-09-30T02:26:40.747Z,996.64
2016-09-30T02:27:40.762Z,996.64
2016-09-30T02:28:40.786Z,996.65
2016-09-30T02:29:40.807Z,996.63
2016-09-30T02:30:40.825Z,996.58
2016-09-30T02:31:40.848Z,996.62
2016-09-30T02:32:40.871Z,996.6
2016-09-30T02:33:40.882Z,996.62
2016-09-30T02:34:40.907Z,996.57
2016-09-30T02:35:40.927Z,996.61
2016-09-30T02:36:40.944Z,996.54
2016-09-30T02:37:40.963Z,996.53
2016-09-30T02:38:40.985Z,996.51
2016-09-30T02:39:41.004Z,996.54
2016-09-30T02:40:41.025Z,996.58
2016-09-30T02:41:41.040Z,996.56
2016-09-30T02:42:41.068Z,996.62
2016-09-30T02:43:41.102Z,996.56
2016-09-30T02:44:41.100Z,996.62
2016-09-30T02:45:41.126Z,996.63
2016-09-30T02:46:41.147Z,996.66
2016-09-30T02:47:41.162Z,996.63
2016-09-30T02:48:41.181Z,996.56
2016-09-30T02:49:41.207Z,996.51
2016-09-30T02:50:41.223Z,996.5
2016-09-30T02:51:41.242Z,996.46
2016-09-30T02:52:41.265Z,996.45
2016-09-30T02:53:41.287Z,996.44
2016-09-30T02:54:41.301Z,996.43
2016-09-30T02:55:41.323Z,996.49
2016-09-30T02:56:41.344Z,996.46
2016-09-30T02:57:41.362Z,996.4
2016-09-30T02:58:41.379Z,996.39
2016-09-30T02:59:41.406Z,996.39
2016-09-30T03:00:41.425Z,996.4
2016-09-30T03:01:41.444Z,996.35
2016-09-30T03:02:41.461Z,996.39
2016-09-30T03:03:41.483Z,996.39
2016-09-30T03:04:41.505Z,996.4
2016-09-30T03:05:41.518Z,996.34
2016-09-30T03:06:41.545Z,996.36
2016-09-30T03:07:41.562Z,996.35
2016-09-30T03:08:41.584Z,996.27
2016-09-30T03:09:41.603Z,996.26
2016-09-30T03:10:41.625Z,996.34
2016-09-30T03:11:41.642Z,996.31
2016-09-30T03:12:41.657Z,996.25
2016-09-30T03:13:41.682Z,996.21
2016-09-30T03:14:41.701Z,996.28
2016-09-30T03:15:41.722Z,996.35
2016-09-30T03:16:41.738Z,996.37
2016-09-30T03:17:41.763Z,996.37
2016-09-30T03:18:41.781Z,996.36
2016-09-30T03:19:41.803Z,996.43
2016-09-30T03:20:41.823Z,996.44
2016-09-30T03:21:41.845Z,996.43
2016-09-30T03:22:41.862Z,996.43
2016-09-30T03:23:41.882Z,996.47
2016-09-30T03:24:41.902Z,996.46
2016-09-30T03:25:41.919Z,996.5
2016-09-30T03:26:41.936Z,996.44
2016-09-30T03:27:41.963Z,996.43
2016-09-30T03:28:41.976Z,996.48
2016-09-30T03:29:41.999Z,996.53
2016-09-30T03:30:42.021Z,996.55
2016-09-30T03:31:42.036Z,996.6
2016-09-30T03:32:42.056Z,996.59
2016-09-30T03:33:42.076Z,996.69
2016-09-30T03:34:42.100Z,996.69
2016-09-30T03:35:42.120Z,996.7
2016-09-30T03:36:42.136Z,996.73
2016-09-30T03:37:42.155Z,996.68
2016-09-30T03:38:42.172Z,996.67
2016-09-30T03:39:42.197Z,996.61
2016-09-30T03:40:42.213Z,996.61
2016-09-30T03:41:42.239Z,996.63
2016-09-30T03:42:42.256Z,996.67
2016-09-30T03:43:42.273Z,996.68
2016-09-30T03:44:42.292Z,996.64
2016-09-30T03:45:42.317Z,996.67
2016-09-30T03:46:42.333Z,996.63
2016-09-30T03:47:42.355Z,996.62
2016-09-30T03:48:42.374Z,996.63
2016-09-30T03:49:42.395Z,996.66
2016-09-30T03:50:42.418Z,996.66
2016-09-30T03:51:42.433Z,996.71
2016-09-30T03:52:42.455Z,996.71
2016-09-30T03:53:42.476Z,996.74
2016-09-30T03:54:42.489Z,996.7
2016-09-30T03:55:42.510Z,996.67
2016-09-30T03:56:42.535Z,996.65
2016-09-30T03:57:42.548Z,996.69
2016-09-30T03:58:42.573Z,996.73
2016-09-30T03:59:42.594Z,996.74
2016-09-30T04:01:42.638Z,996.71
2016-09-30T04:02:42.655Z,996.68
2016-09-30T04:03:42.676Z,996.77
2016-09-30T04:04:42.698Z,996.75
2016-09-30T04:05:42.720Z,996.77
2016-09-30T04:06:42.736Z,996.75
2016-09-30T04:07:42.758Z,996.75
2016-09-30T04:08:42.779Z,996.74
2016-09-30T04:09:42.798Z,996.78
2016-09-30T04:10:42.817Z,996.83
2016-09-30T04:11:42.832Z,996.83
2016-09-30T04:12:42.857Z,996.88
2016-09-30T04:13:42.875Z,996.84
2016-09-30T04:14:42.898Z,996.81
2016-09-30T04:15:42.919Z,996.82
2016-09-30T04:16:42.938Z,996.81
2016-09-30T04:17:42.958Z,996.81
2016-09-30T04:18:42.978Z,996.79
2016-09-30T04:19:42.994Z,996.78
2016-09-30T04:20:43.015Z,996.77
2016-09-30T04:21:43.035Z,996.79
2016-09-30T04:22:43.054Z,996.74
2016-09-30T04:23:43.072Z,996.81
2016-09-30T04:24:43.092Z,996.77
2016-09-30T04:25:43.110Z,996.76
2016-09-30T04:26:43.130Z,996.65
2016-09-30T04:27:43.157Z,996.7
2016-09-30T04:28:43.177Z,996.7
2016-09-30T04:29:43.193Z,996.72
2016-09-30T04:30:43.216Z,996.69
2016-09-30T04:31:43.231Z,996.72
2016-09-30T04:32:43.256Z,996.73
2016-09-30T04:33:43.274Z,996.65
2016-09-30T04:34:43.295Z,996.71
2016-09-30T04:35:43.313Z,996.7
2016-09-30T04:36:43.331Z,996.65
2016-09-30T04:37:43.352Z,996.65
2016-09-30T04:38:43.371Z,996.65
2016-09-30T04:39:43.395Z,996.65
2016-09-30T04:40:43.411Z,996.66
2016-09-30T04:41:43.432Z,996.68
2016-09-30T04:42:43.454Z,996.66
2016-09-30T04:43:43.469Z,996.68
2016-09-30T04:44:43.492Z,996.69
2016-09-30T04:45:43.508Z,996.67
2016-09-30T04:46:43.534Z,996.7
2016-09-30T04:47:43.550Z,996.68
2016-09-30T04:48:43.567Z,996.66
2016-09-30T04:49:43.593Z,996.66
2016-09-30T04:50:43.609Z,996.66
2016-09-30T04:51:43.634Z,996.64
2016-09-30T04:52:43.656Z,996.64
2016-09-30T04:53:43.672Z,996.72
2016-09-30T04:54:43.689Z,996.7
2016-09-30T04:55:43.715Z,996.76
2016-09-30T04:56:43.733Z,996.76
2016-09-30T04:57:43.746Z,996.84
2016-09-30T04:58:43.768Z,996.88
2016-09-30T04:59:43.789Z,996.86
2016-09-30T05:00:43.814Z,996.85
2016-09-30T05:01:43.829Z,996.87
2016-09-30T05:02:43.853Z,996.89
2016-09-30T05:03:43.873Z,996.87
2016-09-30T05:04:43.894Z,996.86
2016-09-30T05:05:43.909Z,996.84
2016-09-30T05:06:43.931Z,996.83
2016-09-30T05:07:43.952Z,996.84
2016-09-30T05:08:43.968Z,996.9
2016-09-30T05:09:43.996Z,996.89
2016-09-30T05:10:44.007Z,996.89
2016-09-30T05:11:44.032Z,996.88
2016-09-30T05:12:44.051Z,996.89
2016-09-30T05:13:44.069Z,996.92
2016-09-30T05:14:44.086Z,996.93
2016-09-30T05:15:44.112Z,996.91
2016-09-30T05:16:44.129Z,996.92
2016-09-30T05:17:44.152Z,996.89
2016-09-30T05:18:44.165Z,996.86
2016-09-30T05:19:44.190Z,996.89
2016-09-30T05:20:44.212Z,996.89
2016-09-30T05:21:44.232Z,996.93
2016-09-30T05:22:44.253Z,996.96
2016-09-30T05:23:44.268Z,997
2016-09-30T05:24:44.284Z,996.92
2016-09-30T05:25:44.310Z,996.93
2016-09-30T05:26:44.331Z,996.94
2016-09-30T05:27:44.349Z,996.93
2016-09-30T05:28:44.369Z,996.91
2016-09-30T05:29:44.392Z,996.92
2016-09-30T05:30:44.413Z,996.9
2016-09-30T05:31:44.432Z,996.86
2016-09-30T05:32:44.446Z,996.85
2016-09-30T05:33:44.472Z,996.86
2016-09-30T05:34:44.487Z,996.85
2016-09-30T05:35:44.510Z,996.9
2016-09-30T05:36:44.527Z,996.87
2016-09-30T05:37:44.545Z,996.9
2016-09-30T05:38:44.572Z,996.92
2016-09-30T05:39:44.589Z,996.93
2016-09-30T05:40:44.608Z,996.93
2016-09-30T05:41:44.626Z,996.98
2016-09-30T05:42:44.651Z,996.98
2016-09-30T05:43:44.666Z,997.02
2016-09-30T05:44:44.688Z,997.02
2016-09-30T05:45:44.709Z,997.05
2016-09-30T05:46:44.725Z,997.07
2016-09-30T05:47:44.742Z,997.17
2016-09-30T05:48:44.768Z,997.2
2016-09-30T05:49:44.789Z,997.21
2016-09-30T05:50:44.805Z,997.29
2016-09-30T05:51:44.826Z,997.24
2016-09-30T05:52:44.848Z,997.27
2016-09-30T05:53:44.868Z,997.25
2016-09-30T05:54:44.885Z,997.26
2016-09-30T05:55:44.902Z,997.26
2016-09-30T05:56:44.927Z,997.18
2016-09-30T05:57:44.947Z,997.18
2016-09-30T05:58:44.969Z,997.14
2016-09-30T05:59:44.983Z,997.11
2016-09-30T06:00:45.003Z,997.13
2016-09-30T06:01:45.027Z,997.1
2016-09-30T06:02:45.044Z,997.12
2016-09-30T06:03:45.064Z,997.14
2016-09-30T06:04:45.082Z,997.16
2016-09-30T06:05:45.102Z,997.22
2016-09-30T06:06:45.126Z,997.2
2016-09-30T06:07:45.145Z,997.17
2016-09-30T06:08:45.166Z,997.15
2016-09-30T06:09:45.182Z,997.18
2016-09-30T06:10:45.202Z,997.13
2016-09-30T06:11:45.224Z,997.16
2016-09-30T06:12:45.246Z,997.14
2016-09-30T06:13:45.266Z,997.19
2016-09-30T06:14:45.282Z,997.17
2016-09-30T06:15:45.304Z,997.19
2016-09-30T06:16:45.321Z,997.17
2016-09-30T06:17:45.345Z,997.16
2016-09-30T06:18:45.358Z,997.17
2016-09-30T06:19:45.381Z,997.16
2016-09-30T06:20:45.401Z,997.14
2016-09-30T06:21:45.418Z,997.17
2016-09-30T06:22:45.439Z,997.14
2016-09-30T06:23:45.458Z,997.18
2016-09-30T06:24:45.484Z,997.14
2016-09-30T06:25:45.498Z,997.18
2016-09-30T06:26:45.519Z,997.22
2016-09-30T06:27:45.542Z,997.19
2016-09-30T06:28:45.559Z,997.19
2016-09-30T06:29:45.581Z,997.18
2016-09-30T06:30:45.599Z,997.16
2016-09-30T06:31:45.622Z,997.12
2016-09-30T06:32:45.642Z,997.11
2016-09-30T06:33:45.661Z,997.14
2016-09-30T06:34:45.690Z,997.15
2016-09-30T06:35:45.708Z,997.17
2016-09-30T06:36:45.721Z,997.15
2016-09-30T06:37:45.740Z,997.19
2016-09-30T06:38:45.758Z,997.21
2016-09-30T06:39:45.785Z,997.18
2016-09-30T06:40:45.802Z,997.14
2016-09-30T06:41:45.824Z,997.11
2016-09-30T06:42:45.840Z,997.1
2016-09-30T06:43:45.866Z,997.14
2016-09-30T06:44:45.887Z,997.1
2016-09-30T06:45:45.902Z,997.1
2016-09-30T06:46:45.925Z,997.14
2016-09-30T06:47:45.945Z,997.14
2016-09-30T06:48:45.964Z,997.17
2016-09-30T06:49:45.986Z,997.17
2016-09-30T06:50:46.004Z,997.15
2016-09-30T06:51:46.024Z,997.16
2016-09-30T06:52:46.042Z,997.19
2016-09-30T06:53:46.065Z,997.24
2016-09-30T06:54:46.088Z,997.23
2016-09-30T06:55:46.104Z,997.28
2016-09-30T06:56:46.123Z,997.3
2016-09-30T06:57:46.141Z,997.33
2016-09-30T06:58:46.163Z,997.37
2016-09-30T06:59:46.188Z,997.35
2016-09-30T07:00:46.210Z,997.42
2016-09-30T07:01:46.229Z,997.39
2016-09-30T07:02:46.244Z,997.4
2016-09-30T07:03:46.264Z,997.42
2016-09-30T07:04:46.286Z,997.4
2016-09-30T07:05:46.308Z,997.41
2016-09-30T07:06:46.327Z,997.42
2016-09-30T07:07:46.350Z,997.42
2016-09-30T07:08:46.370Z,997.44
2016-09-30T07:09:46.385Z,997.44
2016-09-30T07:10:46.408Z,997.42
2016-09-30T07:11:46.426Z,997.49
2016-09-30T07:12:46.450Z,997.47
2016-09-30T07:13:46.471Z,997.45
2016-09-30T07:14:46.488Z,997.46
2016-09-30T07:15:46.511Z,997.48
2016-09-30T07:16:46.533Z,997.54
2016-09-30T07:17:46.550Z,997.53
2016-09-30T07:18:46.571Z,997.52
2016-09-30T07:19:46.589Z,997.53
2016-09-30T07:20:46.609Z,997.55
2016-09-30T07:21:46.634Z,997.5
2016-09-30T07:22:46.654Z,997.53
2016-09-30T07:23:46.673Z,997.51
2016-09-30T07:24:46.691Z,997.58
2016-09-30T07:25:46.712Z,997.56
2016-09-30T07:26:46.734Z,997.59
2016-09-30T07:27:46.753Z,997.64
2016-09-30T07:28:46.773Z,997.66
2016-09-30T07:29:46.790Z,997.67
2016-09-30T07:30:46.814Z,997.66
2016-09-30T07:31:46.833Z,997.73
2016-09-30T07:32:46.860Z,997.77
2016-09-30T07:33:46.877Z,997.74
2016-09-30T07:34:46.896Z,997.76
2016-09-30T07:35:46.920Z,997.73
2016-09-30T07:36:46.933Z,997.74
2016-09-30T07:37:46.961Z,997.72
2016-09-30T07:38:46.981Z,997.77
2016-09-30T07:39:47.001Z,997.78
2016-09-30T07:40:47.021Z,997.81
2016-09-30T07:41:47.042Z,997.76
2016-09-30T07:42:47.061Z,997.71
2016-09-30T07:43:47.080Z,997.79
2016-09-30T07:44:47.104Z,997.75
2016-09-30T07:45:47.119Z,997.77
2016-09-30T07:46:47.139Z,997.73
2016-09-30T07:47:47.166Z,997.78
2016-09-30T07:48:47.186Z,997.77
2016-09-30T07:49:47.204Z,997.76
2016-09-30T07:50:47.231Z,997.82
2016-09-30T07:51:47.242Z,997.84
2016-09-30T07:52:47.349Z,997.83
2016-09-30T07:53:47.290Z,997.86
2016-09-30T07:54:47.308Z,997.84
2016-09-30T07:55:47.326Z,997.87
2016-09-30T07:56:47.345Z,997.85
2016-09-30T07:57:47.367Z,997.86
2016-09-30T07:58:47.387Z,997.91
2016-09-30T07:59:47.406Z,997.88
2016-09-30T08:00:47.431Z,997.89
2016-09-30T08:01:47.454Z,997.89
2016-09-30T08:02:47.475Z,997.89
2016-09-30T08:03:47.492Z,997.92
2016-09-30T08:04:47.516Z,997.88
2016-09-30T08:05:47.533Z,997.9
2016-09-30T08:06:47.556Z,997.94
2016-09-30T08:07:47.579Z,997.97
2016-09-30T08:08:47.599Z,997.96
2016-09-30T08:09:47.617Z,997.93
2016-09-30T08:10:47.638Z,997.94
2016-09-30T08:11:47.662Z,997.97
2016-09-30T08:12:47.677Z,998.01
2016-09-30T08:13:47.694Z,998
2016-09-30T08:14:47.721Z,997.96
2016-09-30T08:15:47.738Z,998
2016-09-30T08:16:47.763Z,998
2016-09-30T08:17:47.789Z,998
2016-09-30T08:18:47.798Z,998.05
2016-09-30T08:19:47.826Z,998.07
2016-09-30T08:20:47.843Z,998.08
2016-09-30T08:21:47.865Z,998.06
2016-09-30T08:22:47.887Z,998.14
2016-09-30T08:23:47.902Z,998.13
2016-09-30T08:24:47.929Z,998.11
2016-09-30T08:25:47.947Z,998.12
2016-09-30T08:26:47.964Z,998.12
2016-09-30T08:27:47.983Z,998.17
2016-09-30T08:28:48.005Z,998.15
2016-09-30T08:29:48.029Z,998.2
2016-09-30T08:30:48.049Z,998.21
2016-09-30T08:31:48.066Z,998.27
2016-09-30T08:32:48.092Z,998.22
2016-09-30T08:33:48.109Z,998.24
2016-09-30T08:34:48.136Z,998.21
2016-09-30T08:35:48.153Z,998.21
2016-09-30T08:36:48.180Z,998.25
2016-09-30T08:37:48.198Z,998.29
2016-09-30T08:38:48.213Z,998.31
2016-09-30T08:39:48.238Z,998.24
2016-09-30T08:40:48.259Z,998.28
2016-09-30T08:41:48.281Z,998.32
2016-09-30T08:42:48.302Z,998.27
2016-09-30T08:43:48.327Z,998.22
2016-09-30T08:44:48.346Z,998.21
2016-09-30T08:45:48.367Z,998.19
2016-09-30T08:46:48.385Z,998.22
2016-09-30T08:47:48.405Z,998.19
2016-09-30T08:48:48.430Z,998.16
2016-09-30T08:49:48.451Z,998.22
2016-09-30T08:50:48.472Z,998.2
2016-09-30T08:51:48.493Z,998.24
2016-09-30T08:52:48.512Z,998.24
2016-09-30T08:53:48.543Z,998.2
2016-09-30T08:54:48.558Z,998.26
2016-09-30T08:55:48.575Z,998.22
2016-09-30T08:56:48.598Z,998.22
2016-09-30T08:57:48.622Z,998.22
2016-09-30T08:58:48.637Z,998.12
2016-09-30T08:59:48.662Z,998.17
2016-09-30T09:00:48.681Z,998.22
2016-09-30T09:01:48.704Z,998.17
2016-09-30T09:02:48.729Z,998.2
2016-09-30T09:03:48.752Z,998.17
2016-09-30T09:04:48.771Z,998.15
2016-09-30T09:05:48.792Z,998.23
2016-09-30T09:06:48.812Z,998.21
2016-09-30T09:07:48.839Z,998.25
2016-09-30T09:08:48.863Z,998.19
2016-09-30T09:09:48.874Z,998.22
2016-09-30T09:10:48.901Z,998.23
2016-09-30T09:11:48.921Z,998.27
2016-09-30T09:12:48.937Z,998.24
2016-09-30T09:13:48.965Z,998.18
2016-09-30T09:14:48.982Z,998.21
2016-09-30T09:15:49.010Z,998.17
2016-09-30T09:16:49.031Z,998.21
2016-09-30T09:17:49.046Z,998.23
2016-09-30T09:18:49.072Z,998.26
2016-09-30T09:19:49.093Z,998.22
2016-09-30T09:20:49.115Z,998.21
2016-09-30T09:21:49.134Z,998.26
2016-09-30T09:22:49.153Z,998.17
2016-09-30T09:23:49.197Z,998.18
2016-09-30T09:24:49.200Z,998.17
2016-09-30T09:25:49.221Z,998.2
2016-09-30T09:26:49.240Z,998.18
2016-09-30T09:27:49.261Z,998.17
2016-09-30T09:28:49.278Z,998.22
2016-09-30T09:29:49.305Z,998.26
2016-09-30T09:30:49.329Z,998.27
2016-09-30T09:31:49.345Z,998.24
2016-09-30T09:32:49.373Z,998.3
2016-09-30T09:33:49.394Z,998.26
2016-09-30T09:34:49.411Z,998.3
2016-09-30T09:35:49.432Z,998.28
2016-09-30T09:36:49.452Z,998.3
2016-09-30T09:37:49.481Z,998.27
2016-09-30T09:38:49.500Z,998.24
2016-09-30T09:39:49.522Z,998.27
2016-09-30T09:40:49.539Z,998.23
2016-09-30T09:41:49.565Z,998.25
2016-09-30T09:42:49.583Z,998.14
2016-09-30T09:43:49.607Z,998.21
2016-09-30T09:44:49.627Z,998.18
2016-09-30T09:45:49.648Z,998.24
2016-09-30T09:46:49.669Z,998.22
2016-09-30T09:47:49.689Z,998.27
2016-09-30T09:48:49.709Z,998.2
2016-09-30T09:49:49.735Z,998.16
2016-09-30T09:50:49.758Z,998.2
2016-09-30T09:51:49.779Z,998.2
2016-09-30T09:52:49.799Z,998.25
2016-09-30T09:53:49.823Z,998.22
2016-09-30T09:54:49.845Z,998.21
2016-09-30T09:55:49.868Z,998.21
2016-09-30T09:56:49.887Z,998.23
2016-09-30T09:57:49.910Z,998.23
2016-09-30T09:58:49.932Z,998.28
2016-09-30T09:59:49.951Z,998.23
2016-09-30T10:00:49.974Z,998.29
2016-09-30T10:01:49.994Z,998.28
2016-09-30T10:02:50.021Z,998.3
2016-09-30T10:03:50.036Z,998.41
2016-09-30T10:04:50.062Z,998.38
2016-09-30T10:05:50.085Z,998.34
2016-09-30T10:06:50.106Z,998.3
2016-09-30T10:07:50.126Z,998.3
2016-09-30T10:08:50.146Z,998.28
2016-09-30T10:09:50.171Z,998.29
2016-09-30T10:10:50.189Z,998.23
2016-09-30T10:11:50.213Z,998.18
2016-09-30T10:12:50.234Z,998.16
2016-09-30T10:13:50.257Z,998.21
2016-09-30T10:14:50.281Z,998.21
2016-09-30T10:15:50.297Z,998.24
2016-09-30T10:16:50.324Z,998.26
2016-09-30T10:17:50.343Z,998.28
2016-09-30T10:18:50.370Z,998.26
2016-09-30T10:19:50.390Z,998.26
2016-09-30T10:20:50.418Z,998.26
2016-09-30T10:21:50.433Z,998.18
2016-09-30T10:22:50.455Z,998.15
2016-09-30T10:23:50.474Z,998.08
2016-09-30T10:24:50.501Z,998.11
2016-09-30T10:25:50.515Z,998.14
2016-09-30T10:26:50.540Z,998.17
2016-09-30T10:27:50.561Z,998.2
2016-09-30T10:28:50.587Z,998.18
2016-09-30T10:29:50.611Z,998.24
2016-09-30T10:30:50.633Z,998.27
2016-09-30T10:31:50.649Z,998.22
2016-09-30T10:32:50.675Z,998.2
2016-09-30T10:33:50.700Z,998.22
2016-09-30T10:34:50.715Z,998.12
2016-09-30T10:35:50.741Z,998.17
2016-09-30T10:36:50.764Z,998.04
2016-09-30T10:37:50.787Z,998.06
2016-09-30T10:38:50.808Z,998.06
2016-09-30T10:39:50.826Z,998.14
2016-09-30T10:40:50.850Z,998.13
2016-09-30T10:41:50.874Z,998.14
2016-09-30T10:42:50.894Z,998.2
2016-09-30T10:43:50.923Z,998.18
2016-09-30T10:44:50.941Z,998.15
2016-09-30T10:45:50.966Z,998.19
2016-09-30T10:46:50.982Z,998.17
2016-09-30T10:47:51.006Z,998.19
2016-09-30T10:48:51.033Z,998.19
2016-09-30T10:49:51.050Z,998.19
2016-09-30T10:50:51.073Z,998.28
2016-09-30T10:51:51.099Z,998.22
2016-09-30T10:52:51.116Z,998.25
2016-09-30T10:53:51.141Z,998.2
2016-09-30T10:54:51.165Z,998.2
2016-09-30T10:55:51.181Z,998.27
2016-09-30T10:56:51.213Z,998.3
2016-09-30T10:57:51.228Z,998.31
2016-09-30T10:58:51.251Z,998.28
2016-09-30T10:59:51.276Z,998.24
2016-09-30T11:00:51.295Z,998.25
2016-09-30T11:01:51.316Z,998.2
2016-09-30T11:02:51.344Z,998.24
2016-09-30T11:03:51.362Z,998.21
2016-09-30T11:04:51.389Z,998.18
2016-09-30T11:05:51.406Z,998.13
2016-09-30T11:06:51.431Z,998.07
2016-09-30T11:07:51.457Z,998.15
2016-09-30T11:08:51.472Z,998.15
2016-09-30T11:09:51.500Z,998.21
2016-09-30T11:10:51.526Z,998.25
2016-09-30T11:11:51.543Z,998.23
2016-09-30T11:12:51.568Z,998.32
2016-09-30T11:13:51.587Z,998.32
2016-09-30T11:14:51.611Z,998.29
2016-09-30T11:15:51.636Z,998.3
2016-09-30T11:16:51.657Z,998.28
2016-09-30T11:17:51.676Z,998.25
2016-09-30T11:18:51.702Z,998.28
2016-09-30T11:19:51.723Z,998.24
2016-09-30T11:20:51.748Z,998.24
2016-09-30T11:21:51.768Z,998.3
2016-09-30T11:22:51.788Z,998.31
2016-09-30T11:23:51.811Z,998.39
2016-09-30T11:24:51.839Z,998.33
2016-09-30T11:25:51.859Z,998.27
2016-09-30T11:26:51.878Z,998.32
2016-09-30T11:27:51.902Z,998.39
2016-09-30T11:28:51.925Z,998.28
2016-09-30T11:29:51.947Z,998.29
2016-09-30T11:30:51.972Z,998.36
2016-09-30T11:31:51.993Z,998.24
2016-09-30T11:32:52.018Z,998.24
2016-09-30T11:33:52.036Z,998.22
2016-09-30T11:34:52.060Z,998.18
2016-09-30T11:35:52.079Z,998.19
2016-09-30T11:36:52.104Z,998.09
2016-09-30T11:37:52.126Z,998.15
2016-09-30T11:38:52.151Z,998.18
2016-09-30T11:39:52.175Z,998.21
2016-09-30T11:40:52.194Z,998.2
2016-09-30T11:41:52.218Z,998.18
2016-09-30T11:42:52.239Z,998.16
2016-09-30T11:43:52.261Z,998.17
2016-09-30T11:44:52.281Z,998.17
2016-09-30T11:45:52.307Z,998.2
2016-09-30T11:46:52.331Z,998.22
2016-09-30T11:47:52.354Z,998.24
2016-09-30T11:48:52.369Z,998.27
2016-09-30T11:49:52.391Z,998.21
2016-09-30T11:50:52.421Z,998.16
2016-09-30T11:51:52.442Z,998.19
2016-09-30T11:52:52.460Z,998.26
2016-09-30T11:53:52.488Z,998.25
2016-09-30T11:54:52.503Z,998.29
2016-09-30T11:55:52.529Z,998.26
2016-09-30T11:56:52.555Z,998.31
2016-09-30T11:57:52.576Z,998.27
2016-09-30T11:58:52.600Z,998.24
2016-09-30T11:59:52.621Z,998.22
2016-09-30T12:00:52.646Z,998.21
2016-09-30T12:01:52.663Z,998.2
2016-09-30T12:02:52.688Z,998.25
2016-09-30T12:03:52.707Z,998.27
2016-09-30T12:04:52.733Z,998.24
2016-09-30T12:05:52.758Z,998.26
2016-09-30T12:06:52.779Z,998.26
2016-09-30T12:07:52.803Z,998.25
2016-09-30T12:08:52.821Z,998.21
2016-09-30T12:09:52.843Z,998.21
2016-09-30T12:10:52.864Z,998.31
2016-09-30T12:11:52.886Z,998.28
2016-09-30T12:12:52.915Z,998.2
2016-09-30T12:13:52.936Z,998.24
2016-09-30T12:14:52.958Z,998.14
2016-09-30T12:15:52.982Z,998.12
2016-09-30T12:16:53.001Z,998.02
2016-09-30T12:17:53.027Z,998.07
2016-09-30T12:18:53.049Z,998.07
2016-09-30T12:19:53.070Z,998.09
2016-09-30T12:20:53.089Z,998.1
2016-09-30T12:21:53.111Z,998.03
2016-09-30T12:22:53.135Z,998.07
2016-09-30T12:23:53.156Z,998.03
2016-09-30T12:24:53.185Z,998.05
2016-09-30T12:25:53.206Z,998
2016-09-30T12:26:53.222Z,998.02
2016-09-30T12:27:53.252Z,998.04
2016-09-30T12:28:53.271Z,998.06
2016-09-30T12:29:53.294Z,998.08
2016-09-30T12:30:53.319Z,998.01
2016-09-30T12:31:53.340Z,998.01
2016-09-30T12:32:53.355Z,998.05